Time;durP1;ratioP1;P1;durP2;ratioP2;P2;SDS_P1;SDS_P2;PMS_P1;PMS_P2;Temp;Humidity;BMP_temperature;BMP_pressure;BME280_temperature;BME280_humidity;BME280_pressure;Samples;Min_cycle;Max_cycle;Signal;HPM_P1;HPM_P2
2023/04/02 00:01:32;;;;;;;2.80;1.95;;;;;;;9.61;100.00;100167.72;5009052;28;20044;-69
2023/04/02 00:03:58;;;;;;;2.47;1.73;;;;;;;9.60;100.00;100173.78;5017112;28;20049;-69
2023/04/02 00:06:33;;;;;;;4.63;2.13;;;;;;;9.62;100.00;100171.16;5014223;28;20048;-69
2023/04/02 00:09:14;;;;;;;3.28;2.47;;;;;;;9.64;100.00;100174.59;5008523;28;20149;-69
2023/04/02 00:11:49;;;;;;;2.33;1.85;;;;;;;9.63;100.00;100181.47;5010457;28;20056;-69
2023/04/02 00:14:26;;;;;;;2.15;1.55;;;;;;;9.64;100.00;100182.34;5009928;28;20045;-69
2023/04/02 00:16:53;;;;;;;1.98;1.50;;;;;;;9.64;100.00;100193.47;5012371;28;20037;-70
2023/04/02 00:19:27;;;;;;;2.75;1.67;;;;;;;9.64;100.00;100195.25;5019212;28;20034;-70
2023/04/02 00:21:53;;;;;;;2.17;1.58;;;;;;;9.64;100.00;100192.66;5017653;28;20045;-69
2023/04/02 00:24:21;;;;;;;2.80;1.85;;;;;;;9.66;100.00;100201.22;5012812;28;20045;-70
2023/04/02 00:26:51;;;;;;;2.03;1.60;;;;;;;9.63;100.00;100207.28;5021222;28;20030;-70
2023/04/02 00:29:18;;;;;;;3.67;1.73;;;;;;;9.62;100.00;100213.31;5013960;28;20041;-70
2023/04/02 00:31:46;;;;;;;4.07;1.60;;;;;;;9.62;100.00;100225.34;5021478;28;20114;-70
2023/04/02 00:34:26;;;;;;;3.83;1.90;;;;;;;9.60;100.00;100227.09;5017354;28;20025;-70
2023/04/02 00:36:52;;;;;;;2.22;1.92;;;;;;;9.56;100.00;100230.56;5019639;28;20038;-70
2023/04/02 00:39:27;;;;;;;2.35;1.70;;;;;;;9.54;100.00;100233.16;5019343;28;20498;-70
2023/04/02 00:42:03;;;;;;;;;;;;;;;9.55;100.00;100239.19;5027138;28;20072;-70
2023/04/02 00:44:31;;;;;;;4.25;1.90;;;;;;;9.52;100.00;100234.94;5014953;28;19920;-71
2023/04/02 00:47:03;;;;;;;3.50;1.80;;;;;;;9.54;100.00;100245.22;5023649;28;20045;-70
2023/04/02 00:49:35;;;;;;;4.22;2.15;;;;;;;9.52;100.00;100244.38;5025508;28;20466;-70
2023/04/02 00:52:05;;;;;;;4.35;1.90;;;;;;;9.51;100.00;100246.09;5022087;28;20060;-70
2023/04/02 00:54:37;;;;;;;2.63;1.67;;;;;;;9.51;100.00;100250.41;5020775;28;20056;-70
2023/04/02 00:57:03;;;;;;;2.35;2.00;;;;;;;9.52;100.00;100250.41;5020566;28;20128;-70
2023/04/02 00:59:32;;;;;;;2.63;1.80;;;;;;;9.52;100.00;100254.72;5014738;28;20041;-70
2023/04/02 01:02:21;;;;;;;17.65;1.92;;;;;;;9.51;100.00;100256.44;5019721;28;20037;-71
2023/04/02 01:05:14;;;;;;;3.25;1.80;;;;;;;9.50;100.00;100269.31;5020691;28;20025;-71
2023/04/02 01:07:52;;;;;;;2.75;2.28;;;;;;;9.51;100.00;100263.31;5019494;28;20034;-70
2023/04/02 01:10:29;;;;;;;2.65;1.77;;;;;;;9.52;100.00;100270.19;5014388;28;20386;-70
2023/04/02 01:13:07;;;;;;;2.70;2.50;;;;;;;9.50;100.00;100277.94;5016187;28;20116;-71
2023/04/02 01:15:42;;;;;;;4.20;2.95;;;;;;;9.50;100.00;100282.22;5015935;28;20049;-71
2023/04/02 01:18:20;;;;;;;3.50;3.17;;;;;;;9.51;100.00;100277.06;5022392;28;20765;-72
2023/04/02 01:20:58;;;;;;;3.90;3.03;;;;;;;9.51;100.00;100281.38;5020894;28;20046;-70
2023/04/02 01:23:45;;;;;;;4.95;3.00;;;;;;;9.52;100.00;100286.53;5015462;28;20049;-71
2023/04/02 01:26:29;;;;;;;4.85;3.20;;;;;;;9.52;100.00;100296.84;5013820;28;20136;-71
2023/04/02 01:29:13;;;;;;;4.63;3.35;;;;;;;9.52;100.00;100299.41;5018906;28;20037;-71
2023/04/02 01:31:41;;;;;;;5.03;3.03;;;;;;;9.54;100.00;100301.97;5018491;28;20029;-71
2023/04/02 01:34:10;;;;;;;4.35;3.20;;;;;;;9.55;100.00;100306.28;5018421;28;20029;-71
2023/04/02 01:36:47;;;;;;;3.90;3.20;;;;;;;9.54;100.00;100310.56;5017206;28;20044;-71
2023/04/02 01:39:49;;;;;;;4.88;3.47;;;;;;;9.54;100.00;100315.72;5019181;28;20727;-71
2023/04/02 01:42:24;;;;;;;4.57;3.03;;;;;;;9.53;100.00;100318.31;5004888;28;20324;-71
2023/04/02 01:44:59;;;;;;;4.65;3.42;;;;;;;9.54;100.00;100323.47;5023339;28;20051;-71
2023/04/02 01:47:26;;;;;;;5.53;3.55;;;;;;;9.53;100.00;100324.31;5018923;28;20044;-71
2023/04/02 01:50:01;;;;;;;7.22;4.10;;;;;;;9.53;100.00;100329.50;5021479;28;20067;-71
2023/04/02 01:52:39;;;;;;;4.43;3.42;;;;;;;9.53;100.00;100339.81;5021818;28;20999;-70
2023/04/02 01:55:11;;;;;;;4.57;3.30;;;;;;;9.51;100.00;100340.69;5016631;28;20103;-70
2023/04/02 01:57:40;;;;;;;5.90;3.78;;;;;;;9.53;100.00;100346.69;5018822;28;20042;-71
2023/04/02 02:00:12;;;;;;;4.97;3.67;;;;;;;9.51;100.00;100348.44;5019730;28;20567;-70
2023/04/02 02:02:38;;;;;;;5.82;4.15;;;;;;;9.52;100.00;100357.91;5017574;28;20168;-71
2023/04/02 02:05:05;;;;;;;5.47;4.18;;;;;;;9.52;100.00;100363.06;5026060;28;20613;-71
2023/04/02 02:07:31;;;;;;;5.65;4.05;;;;;;;9.51;100.00;100367.38;4982504;28;1119604;-68
2023/04/02 02:09:56;;;;;;;6.28;3.95;;;;;;;9.51;100.00;100369.09;5013127;28;21344;-72
2023/04/02 02:12:22;;;;;;;5.82;3.75;;;;;;;9.48;100.00;100369.13;5022802;28;20044;-72
2023/04/02 02:14:51;;;;;;;6.47;4.18;;;;;;;9.47;100.00;100381.16;5016338;28;20037;-71
2023/04/02 02:17:22;;;;;;;6.03;4.55;;;;;;;9.46;100.00;100376.88;5019461;28;20150;-71
2023/04/02 02:19:52;;;;;;;4.72;3.58;;;;;;;9.47;100.00;100388.88;5026731;28;20029;-72
2023/04/02 02:22:37;;;;;;;6.50;4.13;;;;;;;9.45;100.00;100387.19;5017867;28;20021;-71
2023/04/02 02:25:05;;;;;;;;;;;;;;;9.43;100.00;100394.13;5003697;28;20148;-71
2023/04/02 02:27:56;;;;;;;4.90;3.95;;;;;;;9.44;100.00;100398.38;5016505;28;19917;-72
2023/04/02 02:30:43;;;;;;;6.53;4.70;;;;;;;9.43;100.00;100401.84;5017407;28;20133;-71
2023/04/02 02:33:29;;;;;;;6.97;4.45;;;;;;;9.45;100.00;100410.41;5027824;28;20521;-71
2023/04/02 02:36:21;;;;;;;6.60;5.10;;;;;;;9.47;100.00;100418.97;5024920;28;20047;-72
2023/04/02 02:39:05;;;;;;;9.02;6.10;;;;;;;9.51;100.00;100420.69;5043045;28;20033;-71
2023/04/02 02:41:34;;;;;;;10.77;7.20;;;;;;;9.52;100.00;100427.56;5024938;28;20045;-72
2023/04/02 02:44:08;;;;;;;13.02;7.80;;;;;;;9.50;100.00;100432.72;5008136;28;20083;-74
2023/04/02 02:46:38;;;;;;;13.27;8.80;;;;;;;9.52;100.00;100437.88;5014937;28;20499;-72
2023/04/02 02:49:05;;;;;;;13.20;9.00;;;;;;;9.53;100.00;100452.47;5012126;28;20498;-72
2023/04/02 02:52:02;;;;;;;10.52;7.40;;;;;;;9.46;100.00;100461.16;5016035;28;20563;-72
2023/04/02 02:54:30;;;;;;;7.90;4.95;;;;;;;9.41;100.00;100453.44;5018022;28;20045;-72
2023/04/02 02:57:05;;;;;;;6.97;4.07;;;;;;;9.34;100.00;100461.25;5014112;28;20037;-71
2023/04/02 02:59:31;;;;;;;4.05;3.05;;;;;;;9.26;100.00;100463.88;5025554;28;20062;-71
2023/04/02 03:01:59;;;;;;;3.00;2.10;;;;;;;9.20;100.00;100474.25;5019615;28;20057;-71
2023/04/02 03:04:25;;;;;;;2.60;1.98;;;;;;;9.13;100.00;100481.19;5020967;28;20033;-71
2023/04/02 03:06:52;;;;;;;4.18;2.45;;;;;;;9.06;100.00;100476.94;5021778;28;20041;-71
2023/04/02 03:09:23;;;;;;;2.40;2.17;;;;;;;9.02;100.00;100482.97;5018534;28;20064;-71
2023/04/02 03:12:02;;;;;;;5.43;2.40;;;;;;;9.00;100.00;100489.84;5022614;28;20041;-71
2023/04/02 03:14:31;;;;;;;3.85;2.10;;;;;;;8.94;100.00;100487.31;5019707;28;21011;-71
2023/04/02 03:17:08;;;;;;;3.40;2.55;;;;;;;8.91;100.00;100494.22;5022114;28;20041;-72
2023/04/02 03:19:57;;;;;;;3.63;2.70;;;;;;;8.86;100.00;100504.56;5021071;28;20034;-71
2023/04/02 03:22:31;;;;;;;5.05;2.85;;;;;;;8.85;100.00;100507.13;5015211;28;20025;-72
2023/04/02 03:25:21;;;;;;;4.55;3.33;;;;;;;8.80;100.00;100511.47;5012965;28;20128;-71
2023/04/02 03:27:50;;;;;;;4.55;3.45;;;;;;;8.78;100.00;100524.38;5024307;28;20406;-71
2023/04/02 03:30:41;;;;;;;5.53;4.13;;;;;;;8.77;100.00;100520.06;5016753;28;20049;-72
2023/04/02 03:33:16;;;;;;;6.53;4.05;;;;;;;8.74;100.00;100530.41;5011572;28;20395;-72
2023/04/02 03:35:53;;;;;;;;;;;;;;;8.72;100.00;100531.28;5018175;28;20120;-72
2023/04/02 03:38:21;;;;;;;6.53;4.20;;;;;;;8.71;100.00;100538.13;5014564;28;20027;-72
2023/04/02 03:41:16;;;;;;;6.03;4.15;;;;;;;8.71;100.00;100545.88;4999709;28;20087;-72
2023/04/02 03:43:46;;;;;;;7.33;4.80;;;;;;;8.70;100.00;100549.28;5002654;28;20034;-72
2023/04/02 03:46:23;;;;;;;6.53;4.78;;;;;;;8.69;100.00;100549.31;5021097;28;20282;-72
2023/04/02 03:48:53;;;;;;;7.47;4.93;;;;;;;8.67;100.00;100549.31;5014451;28;20033;-73
2023/04/02 03:51:34;;;;;;;6.55;4.80;;;;;;;8.65;99.55;100552.75;5015850;28;20063;-72
2023/04/02 03:54:00;;;;;;;8.23;4.65;;;;;;;8.60;99.69;100565.66;5019185;28;20053;-72
2023/04/02 03:56:38;;;;;;;5.50;4.63;;;;;;;8.55;99.08;100570.81;5017687;28;20081;-73
2023/04/02 03:59:09;;;;;;;6.25;4.53;;;;;;;8.53;99.17;100576.84;5005549;28;20038;-72
2023/04/02 04:01:42;;;;;;;5.57;4.22;;;;;;;8.50;98.07;100580.28;5000381;28;20034;-72
2023/04/02 04:04:18;;;;;;;5.28;4.18;;;;;;;8.47;98.32;100590.59;5013666;28;20502;-72
2023/04/02 04:06:48;;;;;;;6.13;4.22;;;;;;;8.46;97.89;100593.16;5019823;28;20049;-72
2023/04/02 04:09:35;;;;;;;6.00;4.25;;;;;;;8.41;97.26;100605.22;5015115;28;20033;-74
2023/04/02 04:12:29;;;;;;;5.25;3.97;;;;;;;8.39;97.76;100610.38;5018547;28;20041;-74
2023/04/02 04:15:30;;;;;;;6.63;4.47;;;;;;;8.36;97.40;100617.25;5012809;28;20037;-73
2023/04/02 04:18:38;;;;;;;6.53;4.57;;;;;;;8.34;96.93;100624.97;5011853;28;20512;-72
2023/04/02 04:21:28;;;;;;;6.63;5.10;;;;;;;8.30;97.45;100625.84;5012913;28;20041;-73
2023/04/02 04:23:56;;;;;;;6.97;5.25;;;;;;;8.27;97.58;100633.56;5005098;28;20029;-72
2023/04/02 04:26:53;;;;;;;6.03;4.65;;;;;;;8.24;97.67;100643.00;5008215;28;20034;-73
2023/04/02 04:29:26;;;;;;;6.32;4.80;;;;;;;8.20;97.99;100655.03;5014998;28;20033;-72
2023/04/02 04:31:54;;;;;;;7.82;5.60;;;;;;;8.14;97.62;100655.03;5009770;28;20052;-70
2023/04/02 04:34:45;;;;;;;7.22;5.43;;;;;;;8.10;97.75;100661.03;5014017;28;20760;-70
2023/04/02 04:37:20;;;;;;;7.07;5.25;;;;;;;8.07;97.47;100658.44;5015430;28;20650;-71
2023/04/02 04:39:53;;;;;;;;;;;;;;;8.02;97.31;100666.19;5016723;28;20580;-70
2023/04/02 04:42:30;;;;;;;6.63;5.07;;;;;;;7.99;97.86;100680.75;5013418;28;19924;-70
2023/04/02 04:45:12;;;;;;;8.85;5.95;;;;;;;7.96;97.31;100689.34;5010861;28;20099;-70
2023/04/02 04:47:46;;;;;;;7.75;5.70;;;;;;;7.93;97.16;100689.34;5015113;28;20049;-70
2023/04/02 04:50:31;;;;;;;9.38;6.20;;;;;;;7.93;97.75;100703.91;5004631;28;20560;-70
2023/04/02 04:52:56;;;;;;;7.75;5.95;;;;;;;7.90;97.97;100709.94;5009424;28;20041;-70
2023/04/02 04:55:34;;;;;;;8.15;5.95;;;;;;;7.87;97.49;100709.06;5010003;28;20491;-70
2023/04/02 04:58:05;;;;;;;7.35;5.78;;;;;;;7.83;97.41;100712.50;5016444;28;20114;-70
2023/04/02 05:00:37;;;;;;;7.93;6.07;;;;;;;7.83;97.89;100720.22;5010193;28;20098;-70
2023/04/02 05:03:12;;;;;;;9.98;6.85;;;;;;;7.81;97.92;100727.91;5014392;28;20675;-70
2023/04/02 05:05:39;;;;;;;10.02;7.15;;;;;;;7.78;97.74;100735.63;5018059;28;20044;-71
2023/04/02 05:08:44;;;;;;;10.63;7.85;;;;;;;7.75;97.87;100739.91;5021697;28;20789;-71
2023/04/02 05:11:22;;;;;;;11.05;7.25;;;;;;;7.73;97.74;100749.34;4995103;28;20081;-70
2023/04/02 05:13:56;;;;;;;11.02;7.75;;;;;;;7.70;97.78;100751.91;5013796;28;20056;-71
2023/04/02 05:16:35;;;;;;;9.90;7.05;;;;;;;7.69;97.13;100753.63;5011182;28;20030;-69
2023/04/02 05:19:20;;;;;;;9.50;6.70;;;;;;;7.68;96.80;100763.91;5016767;28;20870;-69
2023/04/02 05:22:01;;;;;;;11.07;8.50;;;;;;;7.64;96.43;100764.75;5020481;28;20037;-69
2023/04/02 05:25:01;;;;;;;8.43;6.68;;;;;;;7.62;96.42;100769.91;5018598;28;20041;-70
2023/04/02 05:27:45;;;;;;;10.80;7.18;;;;;;;7.60;96.34;100781.88;5016705;28;20045;-70
2023/04/02 05:30:48;;;;;;;9.50;6.93;;;;;;;7.59;95.50;100787.91;5014896;28;20128;-71
2023/04/02 05:33:28;;;;;;;11.02;7.28;;;;;;;7.57;97.06;100789.59;5027281;28;20065;-71
2023/04/02 05:36:20;;;;;;;8.90;6.22;;;;;;;7.55;96.24;100793.00;5010617;28;20037;-72
2023/04/02 05:38:50;;;;;;;8.00;6.53;;;;;;;7.52;95.65;100799.00;5019237;28;20128;-73
2023/04/02 05:41:25;;;;;;;7.45;5.70;;;;;;;7.52;95.09;100809.28;5015776;28;20045;-72
2023/04/02 05:44:02;;;;;;;9.82;6.55;;;;;;;7.52;95.35;100811.84;5008770;28;20045;-71
2023/04/02 05:46:34;;;;;;;9.43;6.97;;;;;;;7.49;95.07;100819.56;5019550;28;20045;-71
2023/04/02 05:49:00;;;;;;;8.30;5.80;;;;;;;7.47;94.83;100821.28;5027869;28;20045;-72
2023/04/02 05:51:38;;;;;;;7.50;5.90;;;;;;;7.48;94.34;100827.28;5012276;28;20040;-72
2023/04/02 05:54:12;;;;;;;6.97;5.85;;;;;;;7.44;94.73;100840.13;5016314;28;20036;-72
2023/04/02 05:56:42;;;;;;;7.72;5.95;;;;;;;7.43;94.31;100843.53;5013282;28;20088;-71
2023/04/02 05:59:18;;;;;;;7.13;5.30;;;;;;;7.44;94.16;100852.13;5010579;28;20129;-71
2023/04/02 06:02:02;;;;;;;7.78;5.35;;;;;;;7.40;94.30;100865.78;5014758;28;20037;-71
2023/04/02 06:04:46;;;;;;;7.43;6.03;;;;;;;7.40;94.31;100869.22;5018336;28;20068;-70
2023/04/02 06:07:31;;;;;;;7.65;5.13;;;;;;;7.38;93.34;100870.06;5007410;28;20050;-71
2023/04/02 06:10:05;;;;;;;6.65;5.18;;;;;;;7.39;93.46;100882.06;4999243;28;20092;-69
2023/04/02 06:12:54;;;;;;;6.72;4.85;;;;;;;7.36;93.78;100882.91;4998783;28;20797;-72
2023/04/02 06:15:23;;;;;;;7.35;5.50;;;;;;;7.34;94.55;100891.47;4995807;28;20869;-73
2023/04/02 06:18:17;;;;;;;6.50;4.85;;;;;;;7.33;94.38;100905.16;4993888;28;20042;-72
2023/04/02 06:20:42;;;;;;;7.47;5.15;;;;;;;7.33;94.65;100908.59;4995818;28;20044;-71
2023/04/02 06:23:23;;;;;;;6.32;4.85;;;;;;;7.33;93.96;100913.75;4998427;28;20037;-72
2023/04/02 06:25:58;;;;;;;6.30;4.40;;;;;;;7.33;93.60;100915.44;4999537;28;20038;-70
2023/04/02 06:28:26;;;;;;;;;;;;;;;7.31;93.84;100930.88;5000616;28;20025;-71
2023/04/02 06:31:01;;;;;;;6.63;5.10;;;;;;;7.30;94.25;100936.00;4996139;28;19983;-71
2023/04/02 06:33:27;;;;;;;6.90;5.25;;;;;;;7.31;94.00;100937.72;4993823;28;20045;-71
2023/04/02 06:35:54;;;;;;;7.35;5.35;;;;;;;7.29;93.61;100942.00;4989749;28;20042;-71
2023/04/02 06:38:25;;;;;;;7.63;5.60;;;;;;;7.31;93.98;100946.31;4996611;28;20057;-72
2023/04/02 06:40:56;;;;;;;7.20;5.57;;;;;;;7.31;93.27;100953.16;4996054;28;20780;-72
2023/04/02 06:43:44;;;;;;;8.15;5.75;;;;;;;7.30;93.81;100959.13;4996056;28;20910;-73
2023/04/02 06:46:42;;;;;;;6.82;5.50;;;;;;;7.26;94.21;100963.41;5009061;28;20573;-73
2023/04/02 06:49:36;;;;;;;7.85;6.00;;;;;;;7.27;94.76;100977.09;5010532;28;20057;-72
2023/04/02 06:52:07;;;;;;;7.40;5.50;;;;;;;7.26;95.31;100983.13;5010056;28;20033;-73
2023/04/02 06:54:33;;;;;;;7.68;6.00;;;;;;;7.23;95.63;100991.66;5020035;28;20080;-73
2023/04/02 06:56:58;;;;;;;7.68;6.22;;;;;;;7.17;94.16;100991.63;5021634;28;20530;-72
2023/04/02 06:59:24;;;;;;;7.75;6.20;;;;;;;7.16;95.57;101001.88;5013655;28;20045;-73
2023/04/02 07:01:51;;;;;;;7.28;5.90;;;;;;;7.15;96.21;101010.41;5014760;28;20025;-71
2023/04/02 07:04:18;;;;;;;7.80;5.90;;;;;;;7.04;95.86;101012.88;5016557;28;20646;-71
2023/04/02 07:06:44;;;;;;;9.05;6.72;;;;;;;7.07;97.36;101020.59;5015836;28;20045;-71
2023/04/02 07:09:10;;;;;;;10.50;6.95;;;;;;;7.05;97.07;101018.88;5014025;28;20029;-70
2023/04/02 07:11:35;;;;;;;9.00;7.05;;;;;;;7.07;97.39;101030.88;5016410;28;20046;-70
2023/04/02 07:14:01;;;;;;;9.15;6.45;;;;;;;7.04;97.20;101037.69;5017613;28;20099;-70
2023/04/02 07:16:30;;;;;;;8.45;6.47;;;;;;;7.03;97.63;101036.81;5014916;28;20033;-70
2023/04/02 07:18:57;;;;;;;9.20;6.75;;;;;;;7.08;97.87;101054.88;5018266;28;20529;-69
2023/04/02 07:21:23;;;;;;;9.18;7.03;;;;;;;7.02;97.13;101053.13;5014582;28;20056;-69
2023/04/02 07:23:49;;;;;;;10.23;6.95;;;;;;;7.04;96.55;101060.81;5018259;28;20034;-70
2023/04/02 07:26:17;;;;;;;8.07;6.35;;;;;;;7.02;96.35;101065.09;5011945;28;20041;-70
2023/04/02 07:28:43;;;;;;;8.07;6.25;;;;;;;7.04;96.73;101069.41;5010491;28;20593;-70
2023/04/02 07:31:15;;;;;;;7.85;5.82;;;;;;;7.03;95.71;101074.53;5007064;28;20021;-71
2023/04/02 07:33:40;;;;;;;9.32;5.82;;;;;;;7.01;95.00;101074.50;5014961;28;20049;-70
2023/04/02 07:36:06;;;;;;;8.77;6.65;;;;;;;7.02;95.36;101086.53;5017977;28;20044;-70
2023/04/02 07:38:31;;;;;;;10.23;7.15;;;;;;;7.03;94.92;101084.81;5020030;28;20029;-71
2023/04/02 07:40:57;;;;;;;9.90;7.28;;;;;;;7.07;94.98;101094.28;5022588;28;20494;-71
2023/04/02 07:43:22;;;;;;;8.82;6.45;;;;;;;7.11;95.08;101101.19;5013546;28;20542;-70
2023/04/02 07:45:49;;;;;;;9.15;7.13;;;;;;;7.15;95.03;101108.09;5013426;28;20132;-71
2023/04/02 07:48:15;;;;;;;8.77;6.95;;;;;;;7.17;94.61;101109.00;5008278;28;20037;-72
2023/04/02 07:50:40;;;;;;;7.53;6.47;;;;;;;7.18;93.94;101110.72;5015243;28;20040;-71
2023/04/02 07:53:07;;;;;;;10.13;6.30;;;;;;;7.19;94.20;101121.00;5009561;28;20061;-71
2023/04/02 07:55:33;;;;;;;8.05;6.25;;;;;;;7.20;94.40;101122.75;5016698;28;20060;-71
2023/04/02 07:57:58;;;;;;;6.97;6.00;;;;;;;7.20;93.63;101133.03;5010019;28;20025;-70
2023/04/02 08:00:27;;;;;;;8.48;6.45;;;;;;;7.19;93.39;101133.00;5010914;28;20752;-72
2023/04/02 08:02:52;;;;;;;7.47;6.15;;;;;;;7.17;92.85;101135.56;5013641;28;20050;-72
2023/04/02 08:05:18;;;;;;;8.05;5.97;;;;;;;7.20;93.00;101138.19;5017830;28;20044;-70
2023/04/02 08:07:51;;;;;;;9.15;6.38;;;;;;;7.22;92.48;101143.31;5014151;28;20512;-71
2023/04/02 08:10:18;;;;;;;8.52;5.93;;;;;;;7.24;92.50;101150.19;5010916;28;20021;-71
2023/04/02 08:12:43;;;;;;;9.10;7.05;;;;;;;7.31;93.12;101151.13;5017059;28;20033;-70
2023/04/02 08:15:12;;;;;;;8.57;6.35;;;;;;;7.26;91.18;101160.50;5017358;28;20379;-70
2023/04/02 08:17:38;;;;;;;9.60;6.78;;;;;;;7.31;92.12;101166.56;5011845;28;20482;-69
2023/04/02 08:20:05;;;;;;;9.10;6.32;;;;;;;7.47;92.84;101177.88;5022693;28;20033;-70
2023/04/02 08:22:31;;;;;;;8.25;6.18;;;;;;;7.47;91.08;101175.31;5016297;28;20103;-67
2023/04/02 08:24:57;;;;;;;8.68;6.82;;;;;;;7.48;89.74;101184.78;5017630;28;20108;-71
2023/04/02 08:27:23;;;;;;;7.40;5.85;;;;;;;7.50;89.74;101194.22;5027281;28;20128;-70
2023/04/02 08:29:49;;;;;;;10.32;7.22;;;;;;;7.55;90.37;101194.25;5016724;28;20034;-72
2023/04/02 08:32:15;;;;;;;10.52;6.28;;;;;;;7.60;89.68;101205.44;5019428;28;20190;-72
2023/04/02 08:34:41;;;;;;;7.70;6.18;;;;;;;7.60;90.12;101213.16;5014924;28;20668;-70
2023/04/02 08:37:10;;;;;;;8.38;5.82;;;;;;;7.55;88.39;101210.56;5019459;28;20041;-70
2023/04/02 08:39:35;;;;;;;7.57;5.68;;;;;;;7.44;88.71;101220.75;5022674;28;20038;-70
2023/04/02 08:42:32;;;;;;;8.30;6.72;;;;;;;7.37;88.82;101228.34;5026595;28;20110;-71
2023/04/02 08:45:28;;;;;;;10.32;7.03;;;;;;;7.34;89.65;101234.31;5013632;28;20117;-71
2023/04/02 08:47:56;;;;;;;8.40;6.03;;;;;;;7.35;89.71;101241.19;5017779;28;20466;-71
2023/04/02 08:50:32;;;;;;;7.55;6.30;;;;;;;7.34;89.82;101252.31;5017818;28;20071;-72
2023/04/02 08:53:01;;;;;;;8.73;6.50;;;;;;;7.37;89.30;101249.78;5024651;28;20037;-71
2023/04/02 08:55:38;;;;;;;9.98;6.90;;;;;;;7.42;90.08;101263.56;5019777;28;20687;-70
2023/04/02 08:58:26;;;;;;;11.05;7.32;;;;;;;7.48;90.74;101267.06;5019515;28;20045;-70
2023/04/02 09:00:56;;;;;;;10.48;6.10;;;;;;;7.51;89.74;101267.94;5018493;28;20029;-71
2023/04/02 09:03:40;;;;;;;7.72;5.80;;;;;;;7.53;88.41;101271.44;5017498;28;20041;-71
2023/04/02 09:06:11;;;;;;;6.63;5.35;;;;;;;7.50;87.74;101273.09;5012014;28;20064;-68
2023/04/02 09:08:38;;;;;;;6.88;5.50;;;;;;;7.53;88.15;101279.13;5013235;28;20069;-71
2023/04/02 09:11:21;;;;;;;7.80;5.55;;;;;;;7.52;86.66;101281.69;5021343;28;20033;-70
2023/04/02 09:13:53;;;;;;;6.72;5.40;;;;;;;7.63;87.49;101296.38;5018486;28;20024;-70
2023/04/02 09:16:22;;;;;;;7.72;5.65;;;;;;;7.72;87.39;101293.06;5017729;28;20040;-71
2023/04/02 09:18:52;;;;;;;6.05;5.00;;;;;;;7.80;86.42;101287.16;5012908;28;20456;-70
2023/04/02 09:21:20;;;;;;;8.18;5.60;;;;;;;7.86;85.91;101296.69;5010072;28;20037;-70
2023/04/02 09:23:46;;;;;;;7.47;5.65;;;;;;;7.93;84.49;101299.31;5019781;28;20507;-70
2023/04/02 09:26:29;;;;;;;9.23;6.40;;;;;;;7.95;84.51;101307.06;5018669;28;20049;-71
2023/04/02 09:29:12;;;;;;;9.38;6.43;;;;;;;7.90;83.44;101308.72;5030330;28;20525;-70
2023/04/02 09:31:43;;;;;;;8.18;5.72;;;;;;;7.83;82.84;101307.78;5013737;28;20042;-70
2023/04/02 09:34:34;;;;;;;10.07;7.05;;;;;;;7.94;85.46;101336.22;5019244;28;20021;-71
2023/04/02 09:37:06;;;;;;;10.82;8.40;;;;;;;7.92;84.00;101336.19;5017810;28;20125;-70
2023/04/02 09:39:31;;;;;;;8.32;5.97;;;;;;;7.93;83.34;101332.78;5016491;28;20045;-71
2023/04/02 09:41:57;;;;;;;10.50;6.70;;;;;;;7.91;83.49;101349.06;5019983;28;20054;-71
2023/04/02 09:44:26;;;;;;;9.63;6.50;;;;;;;7.81;83.54;101350.66;5020834;28;20546;-70
2023/04/02 09:47:04;;;;;;;8.15;6.38;;;;;;;7.84;83.57;101358.41;5028575;28;20045;-70
2023/04/02 09:49:37;;;;;;;9.10;7.10;;;;;;;7.88;83.52;101364.47;5013182;28;20113;-71
2023/04/02 09:52:06;;;;;;;9.18;7.32;;;;;;;7.84;82.92;101366.13;5017904;28;20037;-70
2023/04/02 09:54:31;;;;;;;9.85;6.68;;;;;;;7.84;83.15;101376.44;5018667;28;20195;-70
2023/04/02 09:57:00;;;;;;;10.00;7.30;;;;;;;7.77;82.89;101376.34;5022097;28;20037;-70
2023/04/02 09:59:26;;;;;;;10.98;7.13;;;;;;;7.77;83.77;101379.75;5016609;28;20037;-72
2023/04/02 10:01:54;;;;;;;9.45;7.13;;;;;;;7.76;83.58;101379.75;5017350;28;20037;-71
2023/04/02 10:04:26;;;;;;;9.30;7.53;;;;;;;7.83;83.67;101387.56;5020477;28;20029;-71
2023/04/02 10:06:56;;;;;;;10.23;7.20;;;;;;;7.98;84.92;101394.63;5011888;28;20952;-70
2023/04/02 10:09:56;;;;;;;9.43;7.28;;;;;;;7.97;82.50;101395.47;5013331;28;20045;-69
2023/04/02 10:12:21;;;;;;;10.35;7.22;;;;;;;7.98;82.10;101397.19;5015807;28;20461;-69
2023/04/02 10:14:48;;;;;;;9.52;7.78;;;;;;;7.98;81.88;101404.94;5014987;28;20419;-70
2023/04/02 10:17:18;;;;;;;9.75;6.97;;;;;;;8.00;82.09;101409.25;5010930;28;20164;-64
2023/04/02 10:19:55;;;;;;;8.38;6.22;;;;;;;8.02;81.77;101411.81;5013936;28;20026;-65
2023/04/02 10:22:22;;;;;;;9.93;6.65;;;;;;;8.00;82.22;101416.09;5018804;28;20041;-65
2023/04/02 10:24:48;;;;;;;9.20;6.65;;;;;;;8.00;81.96;101419.53;5012778;28;20041;-65
2023/04/02 10:27:47;;;;;;;8.07;5.93;;;;;;;7.96;81.77;101422.91;5016013;28;20108;-65
2023/04/02 10:30:29;;;;;;;8.90;6.70;;;;;;;7.90;81.49;101430.56;5013298;28;20068;-65
2023/04/02 10:33:06;;;;;;;11.18;7.45;;;;;;;7.91;81.03;101441.72;5014061;28;20083;-65
2023/04/02 10:35:42;;;;;;;12.00;7.80;;;;;;;7.92;81.73;101443.47;5014217;28;20041;-65
2023/04/02 10:38:21;;;;;;;9.57;6.30;;;;;;;7.95;80.75;101449.47;5016083;28;20033;-65
2023/04/02 10:41:25;;;;;;;10.85;7.65;;;;;;;7.97;82.09;101449.53;5014070;28;20021;-65
2023/04/02 10:44:19;;;;;;;10.57;7.00;;;;;;;7.93;81.03;101466.63;5004285;28;20045;-65
2023/04/02 10:47:00;;;;;;;11.60;8.15;;;;;;;7.97;80.93;101467.53;5016294;28;20773;-65
2023/04/02 10:49:38;;;;;;;12.90;8.32;;;;;;;8.03;81.25;101465.06;5017577;28;20033;-65
2023/04/02 10:52:03;;;;;;;18.45;11.10;;;;;;;8.10;80.91;101469.41;5014453;28;20053;-66
2023/04/02 10:54:42;;;;;;;11.50;7.85;;;;;;;8.11;80.52;101476.31;5011053;28;20044;-65
2023/04/02 10:57:13;;;;;;;12.18;7.75;;;;;;;7.98;81.40;101484.72;5015508;28;20045;-65
2023/04/02 10:59:47;;;;;;;15.98;9.82;;;;;;;7.94;80.54;101490.66;5015612;28;20053;-65
2023/04/02 11:02:40;;;;;;;10.00;7.13;;;;;;;7.97;81.07;101496.72;5026059;28;20037;-66
2023/04/02 11:05:15;;;;;;;11.70;7.90;;;;;;;8.06;80.64;101500.25;5018415;28;20033;-66
2023/04/02 11:07:52;;;;;;;12.93;7.57;;;;;;;8.16;80.98;101504.69;5020714;28;20040;-65
2023/04/02 11:10:19;;;;;;;13.27;8.07;;;;;;;8.14;79.97;101506.38;5023600;28;20490;-66
2023/04/02 11:12:53;;;;;;;10.93;7.07;;;;;;;8.20;79.31;101504.75;5017193;28;20033;-66
2023/04/02 11:15:19;;;;;;;10.77;7.50;;;;;;;8.13;78.82;101513.22;5013758;28;20141;-66
2023/04/02 11:17:46;;;;;;;16.25;9.65;;;;;;;8.15;79.92;101521.84;5018621;28;20041;-65
2023/04/02 11:20:42;;;;;;;9.23;6.53;;;;;;;8.23;79.42;101519.38;5014667;28;20164;-66
2023/04/02 11:23:14;;;;;;;10.27;6.82;;;;;;;8.20;78.79;101527.94;5015769;28;20038;-66
2023/04/02 11:25:41;;;;;;;12.02;8.00;;;;;;;8.29;78.79;101519.44;5017157;28;20107;-66
2023/04/02 11:28:12;;;;;;;13.73;8.35;;;;;;;8.38;78.56;101524.72;5015815;28;20052;-65
2023/04/02 11:30:38;;;;;;;8.73;6.68;;;;;;;8.49;78.78;101529.16;5013703;28;20046;-66
2023/04/02 11:33:31;;;;;;;8.73;6.15;;;;;;;8.62;77.14;101521.56;5013735;28;20034;-66
2023/04/02 11:35:57;;;;;;;6.20;5.07;;;;;;;8.63;76.57;101520.75;5015522;28;20060;-66
2023/04/02 11:38:22;;;;;;;7.72;5.80;;;;;;;8.80;77.73;101540.69;5011724;28;20474;-67
2023/04/02 11:40:53;;;;;;;7.63;5.38;;;;;;;8.82;76.80;101532.97;5024731;28;20033;-66
2023/04/02 11:43:35;;;;;;;8.63;6.00;;;;;;;8.84;76.40;101531.28;5016517;28;20079;-66
2023/04/02 11:46:35;;;;;;;8.02;5.15;;;;;;;8.86;76.70;101534.75;5014121;28;20049;-66
2023/04/02 11:49:38;;;;;;;12.85;6.20;;;;;;;8.78;74.73;101536.38;5007855;28;20048;-67
2023/04/02 11:52:17;;;;;;;9.13;6.10;;;;;;;8.71;75.97;101545.75;5013298;28;20053;-67
2023/04/02 11:54:43;;;;;;;8.90;6.00;;;;;;;8.61;76.68;101549.06;5011664;28;20049;-66
2023/04/02 11:57:23;;;;;;;8.63;5.68;;;;;;;8.63;76.67;101549.09;5013357;28;20045;-67
2023/04/02 12:00:13;;;;;;;9.73;6.57;;;;;;;8.52;75.41;101547.22;5014255;28;20041;-66
2023/04/02 12:03:12;;;;;;;9.38;6.10;;;;;;;8.50;76.09;101566.97;5011621;28;20423;-66
2023/04/02 12:05:47;;;;;;;5.93;5.15;;;;;;;8.42;76.34;101560.00;5019988;28;20064;-66